Time;durP1;ratioP1;P1;durP2;ratioP2;P2;SDS_P1;SDS_P2;PMS_P1;PMS_P2;Temp;Humidity;BMP_temperature;BMP_pressure;BME280_temperature;BME280_humidity;BME280_pressure;Samples;Min_cycle;Max_cycle;Signal;HPM_P1;HPM_P2
2022/10/20 00:01:11;;;;;;;11.65;4.50;;;;;;;;;;5050133;28;20052;-64
2022/10/20 00:03:37;;;;;;;9.10;4.50;;;;;;;;;;5041615;28;20441;-64
2022/10/20 00:06:07;;;;;;;10.88;4.50;;;;;;;;;;5049604;28;20401;-64
2022/10/20 00:08:33;;;;;;;7.10;3.85;;;;;;;;;;5027237;28;219958;-64
2022/10/20 00:10:59;;;;;;;9.75;4.43;;;;;;;;;;5055007;28;20040;-64
2022/10/20 00:13:25;;;;;;;8.27;4.05;;;;;;;;;;5055352;28;20056;-64
2022/10/20 00:15:52;;;;;;;10.05;4.63;;;;;;;;;;5054901;28;20438;-65
2022/10/20 00:18:19;;;;;;;10.18;4.47;;;;;;;;;;5046424;28;20432;-64
2022/10/20 00:20:45;;;;;;;9.88;4.60;;;;;;;;;;5045084;28;20094;-64
2022/10/20 00:23:11;;;;;;;8.88;4.20;;;;;;;;;;5053566;28;20047;-64
2022/10/20 00:25:37;;;;;;;11.15;5.07;;;;;;;;;;5053963;28;20410;-64
2022/10/20 00:28:03;;;;;;;10.48;4.63;;;;;;;;;;5053572;28;20056;-65
2022/10/20 00:30:29;;;;;;;9.63;4.20;;;;;;;;;;5052519;28;20077;-64
2022/10/20 00:32:55;;;;;;;9.02;4.45;;;;;;;;;;5047428;28;20064;-65
2022/10/20 00:35:21;;;;;;;10.27;4.32;;;;;;;;;;5051689;28;20536;-64
2022/10/20 00:37:47;;;;;;;9.75;4.72;;;;;;;;;;5048603;28;20087;-64
2022/10/20 00:40:13;;;;;;;10.95;4.50;;;;;;;;;;5051518;28;20403;-65
2022/10/20 00:42:44;;;;;;;7.97;4.13;;;;;;;;;;5053978;28;20151;-65
2022/10/20 00:45:14;;;;;;;7.38;3.97;;;;;;;;;;5054422;28;20036;-64
2022/10/20 00:47:44;;;;;;;9.38;5.13;;;;;;;;;;5051175;28;20094;-64
2022/10/20 00:50:13;;;;;;;7.20;3.85;;;;;;;;;;5051426;28;20040;-64
2022/10/20 00:52:40;;;;;;;8.20;4.45;;;;;;;;;;5052350;28;20036;-64
2022/10/20 00:55:07;;;;;;;10.65;4.45;;;;;;;;;;5051549;28;20120;-64
2022/10/20 00:57:33;;;;;;;8.95;3.95;;;;;;;;;;5052990;28;20033;-64
2022/10/20 00:59:59;;;;;;;7.68;4.30;;;;;;;;;;5050071;28;20045;-64
2022/10/20 01:02:25;;;;;;;5.63;4.15;;;;;;;;;;5054242;28;20075;-65
2022/10/20 01:04:51;;;;;;;7.25;3.60;;;;;;;;;;5052761;28;20044;-65
2022/10/20 01:07:17;;;;;;;8.20;4.38;;;;;;;;;;5052214;28;20470;-65
2022/10/20 01:09:43;;;;;;;7.32;3.75;;;;;;;;;;5046470;28;20072;-65
2022/10/20 01:12:18;;;;;;;10.70;4.60;;;;;;;;;;5053866;28;20487;-65
2022/10/20 01:15:01;;;;;;;10.32;4.40;;;;;;;;;;5053300;28;20474;-65
2022/10/20 01:17:36;;;;;;;8.18;4.30;;;;;;;;;;5051937;28;20398;-64
2022/10/20 01:20:14;;;;;;;10.27;4.47;;;;;;;;;;5053333;28;20033;-64
2022/10/20 01:22:40;;;;;;;6.30;4.05;;;;;;;;;;5040369;28;20053;-64
2022/10/20 01:25:18;;;;;;;9.30;4.32;;;;;;;;;;5050356;28;20037;-64
2022/10/20 01:27:56;;;;;;;8.23;4.35;;;;;;;;;;5040013;28;20132;-64
2022/10/20 01:30:23;;;;;;;7.57;3.92;;;;;;;;;;5049881;28;20041;-65
2022/10/20 01:32:49;;;;;;;11.32;4.22;;;;;;;;;;5045892;28;20067;-64
2022/10/20 01:35:22;;;;;;;9.00;4.20;;;;;;;;;;5045542;28;20072;-64
2022/10/20 01:37:48;;;;;;;7.03;4.15;;;;;;;;;;5045650;28;20406;-64
2022/10/20 01:40:30;;;;;;;9.95;4.53;;;;;;;;;;5052512;28;20383;-64
2022/10/20 01:42:56;;;;;;;;;;;;;;;;;;5054010;28;20045;-64
2022/10/20 01:45:23;;;;;;;7.85;4.18;;;;;;;;;;5052891;28;19923;-64
2022/10/20 01:47:51;;;;;;;10.60;4.72;;;;;;;;;;5052810;28;20098;-64
2022/10/20 01:50:18;;;;;;;9.63;4.43;;;;;;;;;;5049900;28;20037;-64
2022/10/20 01:52:44;;;;;;;8.55;4.30;;;;;;;;;;5044080;28;20120;-64
2022/10/20 01:55:14;;;;;;;10.98;4.30;;;;;;;;;;5043564;28;20132;-64
2022/10/20 01:57:59;;;;;;;7.38;4.72;;;;;;;;;;5046993;28;20036;-64
2022/10/20 02:00:25;;;;;;;9.30;4.60;;;;;;;;;;5045513;28;20120;-64
2022/10/20 02:02:57;;;;;;;8.38;4.15;;;;;;;;;;5051378;28;20116;-64
2022/10/20 02:05:30;;;;;;;8.38;4.72;;;;;;;;;;5044475;28;20402;-64
2022/10/20 02:08:01;;;;;;;7.20;4.20;;;;;;;;;;5039022;28;20045;-64
2022/10/20 02:10:30;;;;;;;8.52;4.47;;;;;;;;;;5051118;28;20045;-64
2022/10/20 02:12:58;;;;;;;7.07;4.38;;;;;;;;;;5052579;28;20124;-64
2022/10/20 02:15:25;;;;;;;9.45;4.63;;;;;;;;;;5049812;28;20131;-64
2022/10/20 02:18:02;;;;;;;7.97;4.40;;;;;;;;;;5051129;28;20036;-64
2022/10/20 02:20:29;;;;;;;6.45;4.57;;;;;;;;;;5052099;28;20048;-63
2022/10/20 02:22:55;;;;;;;8.82;4.90;;;;;;;;;;5047591;28;20110;-64
2022/10/20 02:25:21;;;;;;;9.75;5.10;;;;;;;;;;5051067;28;20435;-64
2022/10/20 02:27:47;;;;;;;8.43;4.90;;;;;;;;;;5049342;28;20044;-64
2022/10/20 02:30:16;;;;;;;10.27;4.85;;;;;;;;;;5050759;28;20041;-64
2022/10/20 02:32:43;;;;;;;10.52;4.80;;;;;;;;;;5049835;28;20037;-64
2022/10/20 02:35:12;;;;;;;10.43;5.00;;;;;;;;;;5037914;28;20037;-64
2022/10/20 02:37:38;;;;;;;9.52;5.35;;;;;;;;;;5048933;28;20058;-64
2022/10/20 02:40:04;;;;;;;9.55;4.85;;;;;;;;;;5051476;28;20152;-64
2022/10/20 02:42:30;;;;;;;9.13;5.47;;;;;;;;;;5052772;28;20037;-63
2022/10/20 02:44:56;;;;;;;8.93;4.72;;;;;;;;;;5052616;28;20045;-64
2022/10/20 02:47:22;;;;;;;10.88;5.40;;;;;;;;;;5050660;28;20083;-63
2022/10/20 02:49:48;;;;;;;8.93;5.00;;;;;;;;;;5044941;28;20376;-64
2022/10/20 02:52:14;;;;;;;11.05;5.70;;;;;;;;;;5050112;28;20124;-64
2022/10/20 02:54:40;;;;;;;11.35;5.70;;;;;;;;;;5051268;28;20052;-64
2022/10/20 02:57:06;;;;;;;7.75;5.22;;;;;;;;;;5051675;28;20091;-64
2022/10/20 02:59:32;;;;;;;8.85;4.97;;;;;;;;;;5045240;28;20086;-64
2022/10/20 03:01:58;;;;;;;10.35;5.65;;;;;;;;;;5052067;28;20395;-64
2022/10/20 03:04:24;;;;;;;7.70;5.78;;;;;;;;;;5038778;28;20048;-64
2022/10/20 03:06:50;;;;;;;15.00;6.05;;;;;;;;;;5051405;28;20045;-64
2022/10/20 03:09:16;;;;;;;10.02;5.82;;;;;;;;;;5044958;28;20043;-64
2022/10/20 03:11:42;;;;;;;10.27;5.68;;;;;;;;;;5051815;28;20367;-64
2022/10/20 03:14:08;;;;;;;11.32;6.05;;;;;;;;;;5051289;28;20048;-64
2022/10/20 03:16:34;;;;;;;10.85;6.32;;;;;;;;;;5046451;28;20037;-64
2022/10/20 03:19:00;;;;;;;11.40;6.38;;;;;;;;;;5044545;28;20040;-64
2022/10/20 03:21:26;;;;;;;10.57;6.28;;;;;;;;;;5051147;28;20425;-64
2022/10/20 03:23:52;;;;;;;12.27;6.10;;;;;;;;;;5051318;28;20056;-64
2022/10/20 03:26:18;;;;;;;9.23;6.45;;;;;;;;;;5050595;28;20037;-64
2022/10/20 03:28:44;;;;;;;12.80;6.38;;;;;;;;;;5051230;28;20059;-63
2022/10/20 03:31:10;;;;;;;10.43;6.50;;;;;;;;;;5047863;28;20046;-64
2022/10/20 03:33:36;;;;;;;11.25;6.40;;;;;;;;;;5049438;28;20461;-64
2022/10/20 03:36:02;;;;;;;12.23;7.22;;;;;;;;;;5050522;28;20119;-64
2022/10/20 03:38:28;;;;;;;12.95;6.95;;;;;;;;;;5051029;28;20041;-64
2022/10/20 03:40:55;;;;;;;11.60;7.00;;;;;;;;;;5051553;28;20033;-64
2022/10/20 03:43:20;;;;;;;11.05;7.13;;;;;;;;;;5050422;28;20043;-64
2022/10/20 03:45:46;;;;;;;10.45;7.15;;;;;;;;;;5046809;28;20117;-64
2022/10/20 03:48:12;;;;;;;11.63;7.68;;;;;;;;;;5040447;28;20048;-64
2022/10/20 03:50:39;;;;;;;12.73;7.65;;;;;;;;;;5047491;28;20469;-64
2022/10/20 03:53:05;;;;;;;13.15;7.35;;;;;;;;;;5050767;28;20505;-65
2022/10/20 03:55:31;;;;;;;14.00;8.63;;;;;;;;;;5044365;28;20060;-64
2022/10/20 03:57:57;;;;;;;11.13;7.95;;;;;;;;;;5045518;28;20032;-64
2022/10/20 04:00:23;;;;;;;11.23;7.47;;;;;;;;;;5047969;28;20044;-64
2022/10/20 04:02:50;;;;;;;12.45;7.85;;;;;;;;;;5038656;28;20628;-64
2022/10/20 04:05:18;;;;;;;12.52;8.10;;;;;;;;;;5029742;28;20465;-64
2022/10/20 04:07:45;;;;;;;12.60;8.38;;;;;;;;;;5031260;28;20442;-64
2022/10/20 04:10:12;;;;;;;11.50;7.95;;;;;;;;;;5047988;28;20105;-64
2022/10/20 04:12:38;;;;;;;12.75;8.57;;;;;;;;;;5048088;28;20376;-65
2022/10/20 04:15:04;;;;;;;13.30;8.82;;;;;;;;;;5041524;28;20119;-64
2022/10/20 04:17:30;;;;;;;13.60;8.45;;;;;;;;;;5046654;28;20033;-64
2022/10/20 04:19:56;;;;;;;14.05;9.05;;;;;;;;;;5047675;28;20505;-64
2022/10/20 04:22:22;;;;;;;13.75;9.20;;;;;;;;;;5044958;28;20076;-64
2022/10/20 04:24:48;;;;;;;13.77;8.77;;;;;;;;;;5050678;28;20453;-64
2022/10/20 04:27:14;;;;;;;14.40;8.95;;;;;;;;;;5049606;28;20076;-64
2022/10/20 04:29:40;;;;;;;14.82;9.10;;;;;;;;;;5051051;28;20036;-65
2022/10/20 04:32:06;;;;;;;16.52;9.52;;;;;;;;;;5051100;28;20041;-64
2022/10/20 04:34:33;;;;;;;14.85;9.45;;;;;;;;;;5049520;28;20040;-64
2022/10/20 04:36:58;;;;;;;16.02;9.13;;;;;;;;;;5050713;28;20040;-64
2022/10/20 04:39:25;;;;;;;16.58;9.52;;;;;;;;;;5051196;28;20033;-64
2022/10/20 04:41:51;;;;;;;13.77;9.63;;;;;;;;;;5049424;28;20037;-64
2022/10/20 04:44:17;;;;;;;14.38;9.43;;;;;;;;;;5050996;28;20048;-64
2022/10/20 04:46:43;;;;;;;12.48;9.20;;;;;;;;;;5050892;28;20041;-64
2022/10/20 04:49:09;;;;;;;13.40;9.52;;;;;;;;;;5036400;28;20049;-64
2022/10/20 04:51:35;;;;;;;17.23;10.38;;;;;;;;;;5050120;28;20087;-64
2022/10/20 04:54:01;;;;;;;13.00;9.48;;;;;;;;;;5046059;28;20033;-64
2022/10/20 04:56:27;;;;;;;15.20;9.85;;;;;;;;;;5052054;28;20025;-64
2022/10/20 04:58:54;;;;;;;15.13;9.75;;;;;;;;;;5047115;28;20041;-64
2022/10/20 05:01:21;;;;;;;15.32;9.85;;;;;;;;;;5053279;28;20041;-64
2022/10/20 05:03:47;;;;;;;14.48;9.35;;;;;;;;;;5045004;28;20048;-64
2022/10/20 05:06:18;;;;;;;17.08;10.15;;;;;;;;;;5048421;28;20036;-64
2022/10/20 05:08:45;;;;;;;16.50;10.07;;;;;;;;;;5043105;28;20037;-64
2022/10/20 05:11:12;;;;;;;17.50;10.90;;;;;;;;;;5053240;28;20071;-64
2022/10/20 05:13:38;;;;;;;16.80;10.75;;;;;;;;;;5053038;28;20037;-64
2022/10/20 05:16:05;;;;;;;16.67;10.38;;;;;;;;;;5046209;28;20042;-64
2022/10/20 05:18:31;;;;;;;14.35;10.35;;;;;;;;;;5045933;28;20395;-64
2022/10/20 05:20:57;;;;;;;12.82;9.90;;;;;;;;;;5053476;28;20033;-64
2022/10/20 05:23:23;;;;;;;14.05;10.40;;;;;;;;;;5050766;28;20037;-64
2022/10/20 05:25:49;;;;;;;15.07;10.68;;;;;;;;;;5048739;28;20570;-64
2022/10/20 05:28:15;;;;;;;19.30;10.90;;;;;;;;;;5052248;28;20037;-64
2022/10/20 05:30:41;;;;;;;15.13;10.07;;;;;;;;;;5051868;28;20399;-64
2022/10/20 05:33:07;;;;;;;16.10;11.07;;;;;;;;;;5041637;28;20041;-64
2022/10/20 05:35:33;;;;;;;15.93;10.02;;;;;;;;;;5048301;28;20033;-64
2022/10/20 05:37:59;;;;;;;15.95;10.68;;;;;;;;;;5052977;28;20033;-64
2022/10/20 05:40:25;;;;;;;15.77;10.90;;;;;;;;;;5044420;28;20036;-64
2022/10/20 05:42:51;;;;;;;15.95;10.98;;;;;;;;;;5046895;28;20446;-63
2022/10/20 05:45:17;;;;;;;16.83;11.55;;;;;;;;;;5039001;28;20044;-64
2022/10/20 05:47:43;;;;;;;15.40;11.57;;;;;;;;;;5043444;28;20040;-64
2022/10/20 05:50:09;;;;;;;15.55;10.68;;;;;;;;;;5052426;28;20048;-64
2022/10/20 05:52:35;;;;;;;15.93;10.95;;;;;;;;;;5051631;28;20044;-65
2022/10/20 05:55:02;;;;;;;17.40;11.77;;;;;;;;;;5052003;28;20438;-64
2022/10/20 05:57:28;;;;;;;17.77;11.00;;;;;;;;;;5043557;28;20033;-64
2022/10/20 05:59:54;;;;;;;16.80;11.55;;;;;;;;;;5050917;28;20040;-64
2022/10/20 06:02:21;;;;;;;17.63;11.27;;;;;;;;;;5049032;28;20458;-64
2022/10/20 06:04:46;;;;;;;15.95;11.10;;;;;;;;;;5046091;28;20044;-64
2022/10/20 06:07:12;;;;;;;20.40;11.55;;;;;;;;;;5049244;28;20037;-64
2022/10/20 06:09:39;;;;;;;20.17;11.57;;;;;;;;;;5052948;28;20115;-64
2022/10/20 06:12:05;;;;;;;16.90;11.25;;;;;;;;;;5050951;28;20068;-64
2022/10/20 06:14:31;;;;;;;19.73;11.55;;;;;;;;;;5044245;28;20033;-64
2022/10/20 06:16:57;;;;;;;16.70;11.50;;;;;;;;;;5042015;28;20036;-64
2022/10/20 06:19:24;;;;;;;23.65;12.02;;;;;;;;;;5052365;28;20033;-64
2022/10/20 06:21:51;;;;;;;15.25;11.38;;;;;;;;;;5052800;28;20045;-64
2022/10/20 06:24:17;;;;;;;17.77;12.60;;;;;;;;;;5048917;28;20120;-64
2022/10/20 06:26:44;;;;;;;17.73;11.50;;;;;;;;;;5046584;28;20044;-64
2022/10/20 06:29:11;;;;;;;19.55;12.45;;;;;;;;;;5044159;28;20067;-65
2022/10/20 06:31:41;;;;;;;16.45;11.88;;;;;;;;;;5051365;28;20029;-64
2022/10/20 06:34:14;;;;;;;18.98;11.68;;;;;;;;;;5051178;28;20621;-65
2022/10/20 06:36:40;;;;;;;18.17;11.63;;;;;;;;;;5049956;28;20068;-64
2022/10/20 06:39:08;;;;;;;20.90;12.65;;;;;;;;;;5047924;28;20041;-65
2022/10/20 06:41:34;;;;;;;19.08;12.15;;;;;;;;;;5035999;28;20120;-64
2022/10/20 06:44:00;;;;;;;17.58;11.45;;;;;;;;;;5042173;28;20045;-65
2022/10/20 06:46:28;;;;;;;19.80;12.27;;;;;;;;;;5051175;28;20399;-65
2022/10/20 06:48:54;;;;;;;18.77;12.40;;;;;;;;;;5043917;28;20043;-65
2022/10/20 06:51:20;;;;;;;17.92;12.60;;;;;;;;;;5044415;28;20120;-65
2022/10/20 06:53:47;;;;;;;16.00;12.15;;;;;;;;;;5047579;28;20053;-65
2022/10/20 06:56:18;;;;;;;16.67;11.90;;;;;;;;;;5049625;28;20048;-64
2022/10/20 06:58:45;;;;;;;18.00;11.80;;;;;;;;;;5043920;28;20398;-64
2022/10/20 07:01:16;;;;;;;19.10;12.52;;;;;;;;;;5044656;28;20040;-64
2022/10/20 07:03:43;;;;;;;20.55;12.40;;;;;;;;;;5048895;28;20045;-64
2022/10/20 07:06:12;;;;;;;21.58;12.15;;;;;;;;;;5042450;28;20052;-65
2022/10/20 07:08:38;;;;;;;20.38;12.43;;;;;;;;;;5048697;28;20037;-65
2022/10/20 07:11:08;;;;;;;17.40;12.00;;;;;;;;;;5048536;28;20502;-65
2022/10/20 07:13:35;;;;;;;18.17;12.25;;;;;;;;;;5042146;28;20079;-65
2022/10/20 07:16:02;;;;;;;16.85;11.48;;;;;;;;;;5043196;28;20087;-65
2022/10/20 07:18:28;;;;;;;17.63;12.32;;;;;;;;;;5050692;28;20521;-65
2022/10/20 07:20:58;;;;;;;16.40;11.65;;;;;;;;;;5047542;28;20029;-65
2022/10/20 07:23:24;;;;;;;18.63;12.48;;;;;;;;;;5045739;28;20045;-65
2022/10/20 07:25:50;;;;;;;16.58;11.93;;;;;;;;;;5050596;28;20044;-65
2022/10/20 07:28:16;;;;;;;20.15;12.18;;;;;;;;;;5051288;28;20388;-65
2022/10/20 07:30:42;;;;;;;18.92;11.05;;;;;;;;;;5046300;28;20067;-64
2022/10/20 07:33:09;;;;;;;17.80;11.82;;;;;;;;;;5042048;28;20045;-65
2022/10/20 07:35:35;;;;;;;19.10;11.70;;;;;;;;;;5045539;28;20492;-65
2022/10/20 07:38:01;;;;;;;18.45;11.85;;;;;;;;;;5049061;28;20029;-64
2022/10/20 07:40:27;;;;;;;16.67;11.48;;;;;;;;;;5045417;28;20037;-65
2022/10/20 07:42:53;;;;;;;17.52;11.57;;;;;;;;;;5050051;28;20037;-66
2022/10/20 07:45:19;;;;;;;18.88;11.57;;;;;;;;;;5042749;28;20041;-65
2022/10/20 07:47:45;;;;;;;16.23;11.38;;;;;;;;;;5048109;28;20457;-65
2022/10/20 07:50:11;;;;;;;19.52;11.75;;;;;;;;;;5042752;28;20041;-65
2022/10/20 07:52:38;;;;;;;17.80;11.70;;;;;;;;;;5051602;28;20041;-66
2022/10/20 07:55:04;;;;;;;21.77;10.95;;;;;;;;;;5050923;28;20075;-66
2022/10/20 07:57:30;;;;;;;17.33;11.05;;;;;;;;;;5046959;28;20040;-66
2022/10/20 07:59:56;;;;;;;17.55;11.48;;;;;;;;;;5051273;28;20395;-66
2022/10/20 08:02:22;;;;;;;18.27;11.50;;;;;;;;;;5046432;28;20098;-66
2022/10/20 08:04:48;;;;;;;16.70;11.02;;;;;;;;;;5048612;28;20037;-65
2022/10/20 08:07:14;;;;;;;17.90;11.48;;;;;;;;;;5049839;28;20045;-66
2022/10/20 08:09:40;;;;;;;19.42;11.63;;;;;;;;;;5049591;28;20059;-66
2022/10/20 08:12:06;;;;;;;16.25;11.48;;;;;;;;;;5046920;28;20399;-66
2022/10/20 08:14:34;;;;;;;15.82;10.63;;;;;;;;;;5031563;28;20042;-66
2022/10/20 08:17:01;;;;;;;16.92;11.50;;;;;;;;;;5037263;28;20384;-66
2022/10/20 08:19:27;;;;;;;17.63;11.40;;;;;;;;;;5049439;28;20595;-66
2022/10/20 08:21:53;;;;;;;18.25;11.43;;;;;;;;;;5051552;28;20041;-65
2022/10/20 08:24:19;;;;;;;17.02;11.35;;;;;;;;;;5049437;28;20521;-66
2022/10/20 08:26:45;;;;;;;16.80;11.15;;;;;;;;;;5050524;28;20044;-65
2022/10/20 08:29:11;;;;;;;15.18;10.13;;;;;;;;;;5050972;28;20077;-65
2022/10/20 08:31:38;;;;;;;18.42;11.25;;;;;;;;;;5052827;28;20072;-66
2022/10/20 08:34:04;;;;;;;15.50;10.98;;;;;;;;;;5054904;28;20041;-66
2022/10/20 08:36:30;;;;;;;14.48;10.55;;;;;;;;;;5054861;28;20068;-66
2022/10/20 08:38:59;;;;;;;15.25;10.93;;;;;;;;;;5049010;28;20088;-66
2022/10/20 08:41:26;;;;;;;15.38;10.73;;;;;;;;;;5044102;28;20410;-66
2022/10/20 08:43:54;;;;;;;15.77;11.25;;;;;;;;;;5046099;28;20037;-66
2022/10/20 08:46:22;;;;;;;15.73;10.88;;;;;;;;;;5054637;28;20041;-66
2022/10/20 08:48:49;;;;;;;16.42;10.18;;;;;;;;;;5050538;28;20087;-66
2022/10/20 08:51:18;;;;;;;13.88;10.43;;;;;;;;;;5051756;28;20037;-66
2022/10/20 08:53:46;;;;;;;15.00;9.90;;;;;;;;;;5039900;28;20029;-65
2022/10/20 08:56:13;;;;;;;16.75;10.88;;;;;;;;;;5045323;28;20446;-66
2022/10/20 08:58:45;;;;;;;14.48;9.63;;;;;;;;;;5049034;28;20028;-66
2022/10/20 09:01:17;;;;;;;18.30;10.15;;;;;;;;;;5043290;28;20120;-66
2022/10/20 09:03:43;;;;;;;14.27;9.13;;;;;;;;;;5053374;28;20483;-66
2022/10/20 09:06:13;;;;;;;13.48;9.43;;;;;;;;;;5042451;28;20108;-66
2022/10/20 09:08:40;;;;;;;11.88;9.63;;;;;;;;;;5054081;28;20536;-66
2022/10/20 09:11:07;;;;;;;15.18;10.25;;;;;;;;;;5053748;28;20398;-66
2022/10/20 09:13:34;;;;;;;16.75;10.00;;;;;;;;;;5053539;28;20040;-66
2022/10/20 09:16:02;;;;;;;14.02;9.60;;;;;;;;;;5054030;28;20112;-65
2022/10/20 09:18:29;;;;;;;15.77;9.85;;;;;;;;;;5053751;28;20429;-66
2022/10/20 09:21:07;;;;;;;14.75;9.38;;;;;;;;;;5052960;28;20028;-65
2022/10/20 09:23:39;;;;;;;14.25;8.90;;;;;;;;;;5046345;28;20048;-66
2022/10/20 09:26:05;;;;;;;;;;;;;;;;;;5050015;28;20134;-66
2022/10/20 09:28:31;;;;;;;14.05;9.43;;;;;;;;;;5046833;28;20005;-66
2022/10/20 09:30:57;;;;;;;14.75;9.52;;;;;;;;;;5051585;28;20069;-66
2022/10/20 09:33:30;;;;;;;12.82;9.32;;;;;;;;;;5044195;28;20154;-66
2022/10/20 09:36:01;;;;;;;16.10;9.32;;;;;;;;;;5045052;28;20037;-66
2022/10/20 09:38:31;;;;;;;15.23;9.00;;;;;;;;;;5053848;28;20111;-66
2022/10/20 09:41:01;;;;;;;18.88;9.65;;;;;;;;;;5051718;28;20039;-66
2022/10/20 09:43:28;;;;;;;11.68;8.73;;;;;;;;;;5052663;28;20064;-66
2022/10/20 09:45:59;;;;;;;12.80;8.43;;;;;;;;;;5051522;28;20060;-66
2022/10/20 09:48:25;;;;;;;15.55;8.63;;;;;;;;;;5049317;28;20072;-67
2022/10/20 09:50:54;;;;;;;13.10;8.80;;;;;;;;;;5050472;28;20095;-66
2022/10/20 09:53:23;;;;;;;13.75;7.95;;;;;;;;;;5050575;28;20503;-66
2022/10/20 09:55:50;;;;;;;14.65;9.27;;;;;;;;;;5047944;28;20128;-66
2022/10/20 09:58:28;;;;;;;11.77;9.05;;;;;;;;;;5046743;28;20048;-66
2022/10/20 10:00:59;;;;;;;11.57;8.40;;;;;;;;;;5046124;28;20064;-66
2022/10/20 10:03:25;;;;;;;13.02;8.70;;;;;;;;;;5030770;28;20506;-66
2022/10/20 10:05:59;;;;;;;13.07;8.77;;;;;;;;;;5039289;28;20044;-66
2022/10/20 10:08:27;;;;;;;11.85;8.20;;;;;;;;;;5047809;28;20048;-66
2022/10/20 10:11:00;;;;;;;11.40;8.23;;;;;;;;;;5051139;28;20068;-66
2022/10/20 10:13:28;;;;;;;12.23;8.07;;;;;;;;;;5053633;28;20048;-66
2022/10/20 10:16:02;;;;;;;15.63;8.05;;;;;;;;;;5051109;28;20072;-66
2022/10/20 10:18:28;;;;;;;13.60;8.45;;;;;;;;;;5039170;28;20033;-66
2022/10/20 10:20:58;;;;;;;14.27;8.57;;;;;;;;;;5053090;28;20029;-66
2022/10/20 10:23:25;;;;;;;13.38;8.77;;;;;;;;;;5051998;28;20045;-66
2022/10/20 10:25:52;;;;;;;11.73;8.43;;;;;;;;;;5051619;28;20036;-66
2022/10/20 10:28:37;;;;;;;14.23;7.85;;;;;;;;;;5048347;28;20048;-66
2022/10/20 10:31:08;;;;;;;11.50;7.72;;;;;;;;;;5041283;28;20212;-66
2022/10/20 10:33:34;;;;;;;12.98;8.68;;;;;;;;;;5043221;28;20123;-66
2022/10/20 10:36:07;;;;;;;11.50;8.40;;;;;;;;;;5052406;28;20499;-66
2022/10/20 10:38:34;;;;;;;12.88;8.25;;;;;;;;;;5032656;28;20052;-66
2022/10/20 10:41:00;;;;;;;13.70;8.52;;;;;;;;;;5042530;28;20052;-66
2022/10/20 10:43:32;;;;;;;10.57;8.38;;;;;;;;;;5050794;28;20028;-66
2022/10/20 10:46:07;;;;;;;14.10;8.68;;;;;;;;;;5040609;28;20313;-66
2022/10/20 10:48:36;;;;;;;12.15;8.38;;;;;;;;;;5042981;28;20491;-66
2022/10/20 10:51:02;;;;;;;14.20;8.82;;;;;;;;;;5051259;28;20037;-66
2022/10/20 10:53:31;;;;;;;12.35;8.48;;;;;;;;;;5043325;28;20041;-66
2022/10/20 10:56:15;;;;;;;14.65;9.00;;;;;;;;;;5051018;28;20037;-67
2022/10/20 10:58:45;;;;;;;13.68;8.75;;;;;;;;;;5043362;28;20068;-66
2022/10/20 11:01:33;;;;;;;12.82;8.75;;;;;;;;;;5049086;28;20065;-66
2022/10/20 11:04:13;;;;;;;11.32;8.65;;;;;;;;;;5051078;28;20079;-66
2022/10/20 11:06:41;;;;;;;12.52;8.63;;;;;;;;;;5044116;28;20445;-66
2022/10/20 11:09:10;;;;;;;12.05;8.57;;;;;;;;;;5045687;28;20044;-66
2022/10/20 11:11:54;;;;;;;14.02;9.00;;;;;;;;;;5051067;28;20128;-66
2022/10/20 11:14:20;;;;;;;14.80;9.82;;;;;;;;;;5042940;28;20038;-66
2022/10/20 11:17:09;;;;;;;13.60;9.15;;;;;;;;;;5051637;28;20037;-66
2022/10/20 11:19:38;;;;;;;16.15;9.43;;;;;;;;;;5048868;28;20036;-67
2022/10/20 11:22:15;;;;;;;13.30;9.15;;;;;;;;;;5050603;28;20048;-66
2022/10/20 11:24:50;;;;;;;12.70;9.27;;;;;;;;;;5044821;28;20036;-66
2022/10/20 11:27:18;;;;;;;13.43;8.73;;;;;;;;;;5051583;28;20041;-66
2022/10/20 11:29:47;;;;;;;15.05;9.40;;;;;;;;;;5041112;28;20452;-66
2022/10/20 11:32:13;;;;;;;13.40;9.52;;;;;;;;;;5040102;28;20037;-66
2022/10/20 11:34:58;;;;;;;13.18;9.68;;;;;;;;;;5048390;28;20037;-66
2022/10/20 11:37:32;;;;;;;15.05;9.52;;;;;;;;;;5050876;28;20120;-67
2022/10/20 11:40:03;;;;;;;12.65;9.25;;;;;;;;;;5047830;28;20032;-67
2022/10/20 11:42:35;;;;;;;12.15;9.00;;;;;;;;;;5044481;28;20036;-66
2022/10/20 11:45:02;;;;;;;13.95;8.98;;;;;;;;;;5047471;28;20058;-66
2022/10/20 11:47:34;;;;;;;15.45;9.50;;;;;;;;;;5049625;28;20552;-66
2022/10/20 11:50:00;;;;;;;14.20;10.02;;;;;;;;;;5048846;28;20036;-66
2022/10/20 11:52:44;;;;;;;11.80;9.02;;;;;;;;;;5040965;28;20052;-67
2022/10/20 11:55:19;;;;;;;13.57;9.07;;;;;;;;;;5034309;28;20395;-67
2022/10/20 11:58:04;;;;;;;15.05;10.45;;;;;;;;;;5038140;28;20068;-67
2022/10/20 12:00:49;;;;;;;13.18;9.77;;;;;;;;;;5042872;28;20033;-67
2022/10/20 12:03:17;;;;;;;13.30;9.73;;;;;;;;;;5045795;28;20647;-67
2022/10/20 12:05:53;;;;;;;14.55;10.13;;;;;;;;;;5047061;28;20034;-67
2022/10/20 12:08:22;;;;;;;13.57;9.50;;;;;;;;;;5050022;28;20052;-67
2022/10/20 12:10:53;;;;;;;14.23;9.68;;;;;;;;;;5048363;28;20040;-67
2022/10/20 12:13:19;;;;;;;;;;;;;;;;;;5055636;28;20037;-67
2022/10/20 12:15:46;;;;;;;17.00;9.85;;;;;;;;;;5051964;28;19994;-67
2022/10/20 12:18:22;;;;;;;12.98;9.55;;;;;;;;;;5044652;28;20045;-67
2022/10/20 12:20:50;;;;;;;14.20;10.27;;;;;;;;;;5045613;28;20037;-67
2022/10/20 12:23:34;;;;;;;15.10;10.40;;;;;;;;;;5052693;28;20391;-67
2022/10/20 12:26:00;;;;;;;14.38;9.88;;;;;;;;;;5055400;28;20040;-67
2022/10/20 12:28:26;;;;;;;15.20;10.30;;;;;;;;;;5054034;28;20044;-67
2022/10/20 12:30:58;;;;;;;15.23;10.20;;;;;;;;;;5050110;28;20394;-67
2022/10/20 12:33:23;;;;;;;;;;;;;;;;;;5047580;28;20449;-66
2022/10/20 12:36:08;;;;;;;14.73;9.82;;;;;;;;;;5054250;28;19922;-66
2022/10/20 12:38:34;;;;;;;16.55;10.80;;;;;;;;;;5044423;28;20123;-66
2022/10/20 12:41:01;;;;;;;17.77;11.07;;;;;;;;;;5052905;28;20491;-66
2022/10/20 12:43:29;;;;;;;14.32;10.98;;;;;;;;;;5051833;28;20049;-66
2022/10/20 12:46:03;;;;;;;15.75;11.32;;;;;;;;;;5048773;28;20052;-66
2022/10/20 12:48:29;;;;;;;14.77;10.80;;;;;;;;;;5052487;28;20037;-65
2022/10/20 12:51:01;;;;;;;17.83;11.25;;;;;;;;;;5045345;28;20052;-65
2022/10/20 12:53:28;;;;;;;16.85;11.07;;;;;;;;;;5049432;28;20048;-65
2022/10/20 12:55:59;;;;;;;17.30;10.80;;;;;;;;;;5045927;28;20029;-65
2022/10/20 12:58:27;;;;;;;18.85;11.88;;;;;;;;;;5046809;28;20052;-65
2022/10/20 13:00:53;;;;;;;17.35;11.18;;;;;;;;;;5054570;28;20048;-65
2022/10/20 13:03:31;;;;;;;18.02;12.00;;;;;;;;;;5046309;28;20037;-65
2022/10/20 13:06:00;;;;;;;16.98;11.93;;;;;;;;;;5041517;28;20063;-64
2022/10/20 13:08:31;;;;;;;15.43;11.70;;;;;;;;;;5052999;28;20546;-64
2022/10/20 13:11:17;;;;;;;16.58;11.88;;;;;;;;;;5048970;28;20406;-65
2022/10/20 13:13:49;;;;;;;19.20;12.35;;;;;;;;;;5050844;28;20380;-65
2022/10/20 13:16:19;;;;;;;18.67;12.30;;;;;;;;;;5047628;28;20116;-65
2022/10/20 13:18:48;;;;;;;20.15;12.57;;;;;;;;;;5048358;28;20041;-65
2022/10/20 13:21:29;;;;;;;20.50;13.00;;;;;;;;;;5050024;28;20049;-65
2022/10/20 13:24:01;;;;;;;19.08;12.80;;;;;;;;;;5051891;28;20071;-65
2022/10/20 13:26:30;;;;;;;21.63;13.05;;;;;;;;;;5052630;28;20045;-65
2022/10/20 13:28:58;;;;;;;18.80;13.27;;;;;;;;;;5048803;28;20358;-65
2022/10/20 13:31:24;;;;;;;23.00;12.98;;;;;;;;;;5051369;28;20087;-65
2022/10/20 13:34:04;;;;;;;19.30;13.23;;;;;;;;;;5049789;28;20040;-65
2022/10/20 13:36:39;;;;;;;19.27;13.35;;;;;;;;;;5049212;28;20044;-65
2022/10/20 13:39:11;;;;;;;19.92;13.93;;;;;;;;;;5050469;28;20036;-65
2022/10/20 13:41:37;;;;;;;20.02;12.73;;;;;;;;;;5045309;28;20037;-65
2022/10/20 13:44:17;;;;;;;22.15;14.27;;;;;;;;;;5052312;28;20052;-65
2022/10/20 13:46:50;;;;;;;23.90;14.98;;;;;;;;;;5041050;28;20071;-65
2022/10/20 13:49:35;;;;;;;21.38;14.45;;;;;;;;;;5031045;28;20407;-65
2022/10/20 13:52:05;;;;;;;21.52;14.70;;;;;;;;;;5043905;28;20275;-66
2022/10/20 13:54:33;;;;;;;23.25;14.93;;;;;;;;;;5052810;28;20039;-67
2022/10/20 13:56:59;;;;;;;23.40;16.13;;;;;;;;;;5046311;28;20040;-67
2022/10/20 13:59:27;;;;;;;27.30;16.80;;;;;;;;;;5053075;28;20102;-66
2022/10/20 14:01:53;;;;;;;27.08;18.52;;;;;;;;;;5046065;28;20068;-67
2022/10/20 14:04:29;;;;;;;26.55;17.98;;;;;;;;;;5049075;28;20057;-67
2022/10/20 14:07:01;;;;;;;25.10;16.65;;;;;;;;;;5042274;28;20048;-67
2022/10/20 14:09:27;;;;;;;24.55;15.27;;;;;;;;;;5042239;28;20045;-66
2022/10/20 14:12:02;;;;;;;26.85;15.77;;;;;;;;;;5050485;28;20079;-67
2022/10/20 14:14:29;;;;;;;24.52;15.48;;;;;;;;;;5049340;28;20453;-67
2022/10/20 14:17:00;;;;;;;26.55;15.95;;;;;;;;;;5050592;28;20139;-67
2022/10/20 14:19:29;;;;;;;25.00;16.27;;;;;;;;;;5046841;28;20037;-67
2022/10/20 14:22:15;;;;;;;24.63;15.43;;;;;;;;;;5044692;28;20045;-67
2022/10/20 14:24:43;;;;;;;24.95;16.02;;;;;;;;;;5038178;28;20041;-68
2022/10/20 14:27:19;;;;;;;26.55;16.25;;;;;;;;;;5041745;28;20052;-67
2022/10/20 14:29:46;;;;;;;25.33;15.85;;;;;;;;;;5052009;28;20052;-67
2022/10/20 14:32:17;;;;;;;26.83;15.93;;;;;;;;;;5052936;28;20045;-66
2022/10/20 14:35:03;;;;;;;25.80;16.00;;;;;;;;;;5045662;28;20041;-65
2022/10/20 14:37:29;;;;;;;26.75;16.30;;;;;;;;;;5046499;28;20037;-66